LGR888 RPLY-RPLB
Flight info
| Callsign | LGR888 |
|---|---|
| Flight time | 0h 51m |
| Altitude | 6000 |
| Route | ARITA ARITA1 |
| Aircraft | R66/L-SFG/C |
Departure
| Time | 2026-05-06 06:20 |
|---|---|
| Airport | Alabat Island Airport (RPLY) |
Arrival
| Time | 2026-05-06 07:11 |
|---|---|
| Airport | Subic Bay International Airport / Naval Air Station Cubi Point (RPLB) |
| Time | Latitude | Longitude | Altitude | Speed | Heading |
|---|---|---|---|---|---|
| 2026-05-06 06:12 | 14.23246 | 121.92909 | 24 ft | 0 kts | 312° |
| 2026-05-06 06:15 | 14.23245 | 121.92909 | 24 ft | 0 kts | 125° |
| 2026-05-06 06:17 | 14.23204 | 121.92879 | 34 ft | 5 kts | 281° |
| 2026-05-06 06:17 | 14.23181 | 121.92841 | 32 ft | 6 kts | 241° |
| 2026-05-06 06:17 | 14.23157 | 121.92812 | 40 ft | 8 kts | 252° |
| 2026-05-06 06:17 | 14.23113 | 121.92767 | 44 ft | 7 kts | 249° |
| 2026-05-06 06:18 | 14.23077 | 121.92721 | 43 ft | 8 kts | 250° |
| 2026-05-06 06:18 | 14.23044 | 121.92702 | 41 ft | 3 kts | 311° |
| 2026-05-06 06:18 | 14.23058 | 121.92716 | 84 ft | 10 kts | 10° |
| 2026-05-06 06:18 | 14.23262 | 121.92888 | 101 ft | 62 kts | 57° |
| 2026-05-06 06:19 | 14.23601 | 121.93314 | 242 ft | 82 kts | 51° |
| 2026-05-06 06:19 | 14.24014 | 121.93720 | 430 ft | 88 kts | 41° |
| 2026-05-06 06:19 | 14.24518 | 121.94174 | 460 ft | 100 kts | 41° |
| 2026-05-06 06:19 | 14.25054 | 121.94674 | 474 ft | 106 kts | 40° |
| 2026-05-06 06:20 | 14.25594 | 121.95174 | 559 ft | 103 kts | 41° |
| 2026-05-06 06:20 | 14.26184 | 121.95589 | 624 ft | 103 kts | 21° |
| 2026-05-06 06:20 | 14.26892 | 121.95493 | 668 ft | 110 kts | 339° |
| 2026-05-06 06:20 | 14.27377 | 121.94859 | 716 ft | 120 kts | 298° |
| 2026-05-06 06:21 | 14.27339 | 121.93975 | 767 ft | 129 kts | 256° |
| 2026-05-06 06:21 | 14.26747 | 121.93271 | 826 ft | 131 kts | 217° |
| 2026-05-06 06:21 | 14.26141 | 121.92651 | 1082 ft | 115 kts | 231° |
| 2026-05-06 06:21 | 14.25446 | 121.92245 | 1206 ft | 122 kts | 194° |
| 2026-05-06 06:22 | 14.24677 | 121.91890 | 1320 ft | 120 kts | 233° |
| 2026-05-06 06:22 | 14.24437 | 121.91135 | 1513 ft | 109 kts | 278° |
| 2026-05-06 06:22 | 14.24504 | 121.90388 | 1736 ft | 102 kts | 289° |
| 2026-05-06 06:22 | 14.24596 | 121.89676 | 1969 ft | 102 kts | 288° |
| 2026-05-06 06:23 | 14.24682 | 121.88903 | 2047 ft | 113 kts | 288° |
| 2026-05-06 06:23 | 14.24824 | 121.88092 | 2134 ft | 116 kts | 290° |
| 2026-05-06 06:23 | 14.25013 | 121.87272 | 2227 ft | 117 kts | 293° |
| 2026-05-06 06:23 | 14.25236 | 121.86471 | 2318 ft | 118 kts | 293° |
| 2026-05-06 06:24 | 14.25485 | 121.85668 | 2409 ft | 113 kts | 312° |
| 2026-05-06 06:24 | 14.25937 | 121.84996 | 2508 ft | 113 kts | 313° |
| 2026-05-06 06:24 | 14.26388 | 121.84335 | 2599 ft | 114 kts | 314° |
| 2026-05-06 06:24 | 14.26850 | 121.83657 | 2693 ft | 114 kts | 314° |
| 2026-05-06 06:25 | 14.27308 | 121.82993 | 2786 ft | 114 kts | 314° |
| 2026-05-06 06:25 | 14.27764 | 121.82330 | 2878 ft | 114 kts | 314° |
| 2026-05-06 06:25 | 14.28688 | 121.80996 | 3056 ft | 114 kts | 314° |
| 2026-05-06 06:26 | 14.29145 | 121.80329 | 3148 ft | 114 kts | 314° |
| 2026-05-06 06:26 | 14.29613 | 121.79655 | 3243 ft | 114 kts | 314° |
| 2026-05-06 06:26 | 14.30070 | 121.78992 | 3338 ft | 114 kts | 314° |
| 2026-05-06 06:26 | 14.30490 | 121.78275 | 3412 ft | 120 kts | 296° |
| 2026-05-06 06:27 | 14.30697 | 121.77441 | 3514 ft | 119 kts | 287° |
| 2026-05-06 06:27 | 14.30873 | 121.76605 | 3611 ft | 119 kts | 285° |
| 2026-05-06 06:27 | 14.31043 | 121.75766 | 3700 ft | 120 kts | 285° |
| 2026-05-06 06:27 | 14.31207 | 121.74934 | 3789 ft | 120 kts | 285° |
| 2026-05-06 06:28 | 14.31373 | 121.74084 | 3894 ft | 119 kts | 284° |
| 2026-05-06 06:28 | 14.31534 | 121.73250 | 3994 ft | 119 kts | 284° |
| 2026-05-06 06:28 | 14.31696 | 121.72411 | 4090 ft | 119 kts | 284° |
| 2026-05-06 06:28 | 14.31855 | 121.71578 | 4186 ft | 118 kts | 284° |
| 2026-05-06 06:29 | 14.32014 | 121.70740 | 4293 ft | 119 kts | 285° |
| 2026-05-06 06:29 | 14.32174 | 121.69899 | 4451 ft | 120 kts | 286° |
| 2026-05-06 06:29 | 14.32336 | 121.69067 | 4713 ft | 116 kts | 287° |
| 2026-05-06 06:29 | 14.32497 | 121.68255 | 4951 ft | 118 kts | 287° |
| 2026-05-06 06:30 | 14.32661 | 121.67416 | 5175 ft | 119 kts | 286° |
| 2026-05-06 06:30 | 14.32821 | 121.66585 | 5384 ft | 119 kts | 285° |
| 2026-05-06 06:30 | 14.32982 | 121.65743 | 5599 ft | 120 kts | 285° |
| 2026-05-06 06:30 | 14.33139 | 121.64913 | 5816 ft | 119 kts | 285° |
| 2026-05-06 06:31 | 14.33306 | 121.64040 | 5971 ft | 124 kts | 284° |
| 2026-05-06 06:31 | 14.33478 | 121.63130 | 6002 ft | 136 kts | 283° |
| 2026-05-06 06:31 | 14.33659 | 121.62151 | 6000 ft | 138 kts | 282° |
| 2026-05-06 06:31 | 14.33832 | 121.61199 | 6114 ft | 133 kts | 282° |
| 2026-05-06 06:32 | 14.34004 | 121.60263 | 6209 ft | 133 kts | 283° |
| 2026-05-06 06:32 | 14.34182 | 121.59316 | 6206 ft | 139 kts | 283° |
| 2026-05-06 06:32 | 14.34368 | 121.58315 | 6184 ft | 142 kts | 282° |
| 2026-05-06 06:32 | 14.34554 | 121.57310 | 6168 ft | 143 kts | 282° |
| 2026-05-06 06:33 | 14.34740 | 121.56314 | 6142 ft | 143 kts | 282° |
| 2026-05-06 06:33 | 14.34929 | 121.55302 | 6125 ft | 143 kts | 282° |
| 2026-05-06 06:33 | 14.35117 | 121.54298 | 6113 ft | 142 kts | 282° |
| 2026-05-06 06:33 | 14.35304 | 121.53297 | 6096 ft | 143 kts | 282° |
| 2026-05-06 06:34 | 14.35494 | 121.52286 | 6073 ft | 143 kts | 282° |
| 2026-05-06 06:34 | 14.35681 | 121.51289 | 6042 ft | 143 kts | 282° |
| 2026-05-06 06:34 | 14.35873 | 121.50267 | 5999 ft | 144 kts | 281° |
| 2026-05-06 06:34 | 14.36059 | 121.49265 | 5974 ft | 143 kts | 282° |
| 2026-05-06 06:35 | 14.36244 | 121.48270 | 6034 ft | 135 kts | 282° |
| 2026-05-06 06:35 | 14.36420 | 121.47337 | 6134 ft | 133 kts | 283° |
| 2026-05-06 06:35 | 14.36595 | 121.46411 | 6251 ft | 129 kts | 284° |
| 2026-05-06 06:35 | 14.36773 | 121.45477 | 6279 ft | 136 kts | 283° |
| 2026-05-06 06:36 | 14.36961 | 121.44495 | 6224 ft | 142 kts | 282° |
| 2026-05-06 06:36 | 14.37147 | 121.43496 | 6170 ft | 143 kts | 282° |
| 2026-05-06 06:36 | 14.37335 | 121.42480 | 6109 ft | 144 kts | 282° |
| 2026-05-06 06:36 | 14.37523 | 121.41473 | 6058 ft | 144 kts | 282° |
| 2026-05-06 06:37 | 14.37713 | 121.40456 | 6021 ft | 144 kts | 282° |
| 2026-05-06 06:37 | 14.37904 | 121.39439 | 5963 ft | 144 kts | 282° |
| 2026-05-06 06:37 | 14.38093 | 121.38422 | 5907 ft | 144 kts | 281° |
| 2026-05-06 06:37 | 14.38280 | 121.37415 | 5866 ft | 144 kts | 282° |
| 2026-05-06 06:38 | 14.38470 | 121.36398 | 5824 ft | 144 kts | 282° |
| 2026-05-06 06:38 | 14.38658 | 121.35386 | 5813 ft | 142 kts | 282° |
| 2026-05-06 06:38 | 14.38846 | 121.34382 | 5792 ft | 142 kts | 282° |
| 2026-05-06 06:38 | 14.39033 | 121.33385 | 5772 ft | 142 kts | 282° |
| 2026-05-06 06:39 | 14.39221 | 121.32385 | 5747 ft | 142 kts | 282° |
| 2026-05-06 06:39 | 14.39408 | 121.31388 | 5723 ft | 142 kts | 282° |
| 2026-05-06 06:39 | 14.39594 | 121.30395 | 5698 ft | 142 kts | 282° |
| 2026-05-06 06:39 | 14.39781 | 121.29398 | 5672 ft | 142 kts | 282° |
| 2026-05-06 06:40 | 14.39969 | 121.28396 | 5645 ft | 142 kts | 282° |
| 2026-05-06 06:40 | 14.40157 | 121.27396 | 5613 ft | 142 kts | 281° |
| 2026-05-06 06:40 | 14.40346 | 121.26383 | 5591 ft | 142 kts | 281° |
| 2026-05-06 06:40 | 14.40530 | 121.25391 | 5570 ft | 142 kts | 282° |
| 2026-05-06 06:41 | 14.40719 | 121.24381 | 5547 ft | 143 kts | 282° |
| 2026-05-06 06:41 | 14.40907 | 121.23372 | 5524 ft | 142 kts | 282° |
| 2026-05-06 06:41 | 14.41092 | 121.22375 | 5508 ft | 142 kts | 282° |
| 2026-05-06 06:41 | 14.41280 | 121.21370 | 5491 ft | 142 kts | 282° |
| 2026-05-06 06:42 | 14.41468 | 121.20364 | 5463 ft | 142 kts | 282° |
| 2026-05-06 06:42 | 14.41653 | 121.19370 | 5436 ft | 142 kts | 282° |
| 2026-05-06 06:42 | 14.41840 | 121.18366 | 5410 ft | 141 kts | 282° |
| 2026-05-06 06:42 | 14.42025 | 121.17374 | 5381 ft | 141 kts | 282° |
| 2026-05-06 06:43 | 14.42210 | 121.16379 | 5356 ft | 141 kts | 282° |
| 2026-05-06 06:43 | 14.42395 | 121.15381 | 5336 ft | 141 kts | 282° |
| 2026-05-06 06:43 | 14.42585 | 121.14368 | 5271 ft | 144 kts | 282° |
| 2026-05-06 06:43 | 14.42772 | 121.13364 | 5245 ft | 142 kts | 282° |
| 2026-05-06 06:44 | 14.42959 | 121.12359 | 5222 ft | 142 kts | 282° |
| 2026-05-06 06:44 | 14.43144 | 121.11366 | 5199 ft | 142 kts | 282° |
| 2026-05-06 06:44 | 14.43331 | 121.10370 | 5178 ft | 141 kts | 281° |
| 2026-05-06 06:44 | 14.43515 | 121.09370 | 5155 ft | 142 kts | 282° |
| 2026-05-06 06:45 | 14.43701 | 121.08371 | 5134 ft | 142 kts | 281° |
| 2026-05-06 06:45 | 14.43888 | 121.07363 | 5112 ft | 141 kts | 281° |
| 2026-05-06 06:45 | 14.44072 | 121.06373 | 5089 ft | 141 kts | 282° |
| 2026-05-06 06:45 | 14.44255 | 121.05383 | 5068 ft | 141 kts | 282° |
| 2026-05-06 06:46 | 14.44442 | 121.04382 | 5043 ft | 141 kts | 282° |
| 2026-05-06 06:46 | 14.44626 | 121.03387 | 5023 ft | 141 kts | 282° |
| 2026-05-06 06:46 | 14.44815 | 121.02375 | 4999 ft | 142 kts | 282° |
| 2026-05-06 06:46 | 14.44995 | 121.01402 | 5045 ft | 136 kts | 282° |
| 2026-05-06 06:47 | 14.45178 | 121.00433 | 5061 ft | 138 kts | 282° |
| 2026-05-06 06:47 | 14.45360 | 120.99458 | 5064 ft | 139 kts | 282° |
| 2026-05-06 06:47 | 14.45543 | 120.98470 | 5064 ft | 139 kts | 282° |
| 2026-05-06 06:47 | 14.45726 | 120.97486 | 5062 ft | 140 kts | 282° |
| 2026-05-06 06:48 | 14.45907 | 120.96499 | 5071 ft | 139 kts | 282° |
| 2026-05-06 06:48 | 14.46091 | 120.95512 | 5106 ft | 139 kts | 282° |
| 2026-05-06 06:48 | 14.46277 | 120.94522 | 5102 ft | 141 kts | 282° |
| 2026-05-06 06:48 | 14.46460 | 120.93526 | 5105 ft | 142 kts | 282° |
| 2026-05-06 06:49 | 14.46647 | 120.92522 | 5106 ft | 142 kts | 282° |
| 2026-05-06 06:49 | 14.46833 | 120.91518 | 5105 ft | 142 kts | 282° |
| 2026-05-06 06:49 | 14.47018 | 120.90517 | 5109 ft | 142 kts | 282° |
| 2026-05-06 06:49 | 14.47203 | 120.89514 | 5106 ft | 142 kts | 282° |
| 2026-05-06 06:50 | 14.47391 | 120.88504 | 5112 ft | 143 kts | 282° |
| 2026-05-06 06:50 | 14.47578 | 120.87502 | 5108 ft | 143 kts | 282° |
| 2026-05-06 06:50 | 14.47764 | 120.86494 | 5113 ft | 143 kts | 282° |
| 2026-05-06 06:50 | 14.47952 | 120.85479 | 5113 ft | 144 kts | 282° |
| 2026-05-06 06:51 | 14.48138 | 120.84465 | 5111 ft | 143 kts | 282° |
| 2026-05-06 06:51 | 14.48326 | 120.83446 | 5110 ft | 143 kts | 282° |
| 2026-05-06 06:51 | 14.48511 | 120.82446 | 5108 ft | 143 kts | 282° |
| 2026-05-06 06:51 | 14.48698 | 120.81430 | 5107 ft | 143 kts | 282° |
| 2026-05-06 06:52 | 14.48907 | 120.80430 | 5094 ft | 143 kts | 289° |
| 2026-05-06 06:52 | 14.49489 | 120.79609 | 5095 ft | 138 kts | 315° |
| 2026-05-06 06:52 | 14.50146 | 120.78888 | 5113 ft | 139 kts | 317° |
| 2026-05-06 06:52 | 14.50811 | 120.78170 | 5109 ft | 139 kts | 317° |
| 2026-05-06 06:53 | 14.51279 | 120.77290 | 5072 ft | 145 kts | 284° |
| 2026-05-06 06:53 | 14.51502 | 120.76282 | 5104 ft | 142 kts | 284° |
| 2026-05-06 06:53 | 14.51800 | 120.75303 | 5078 ft | 143 kts | 294° |
| 2026-05-06 06:53 | 14.52032 | 120.74307 | 5101 ft | 142 kts | 284° |
| 2026-05-06 06:54 | 14.52244 | 120.73338 | 5248 ft | 133 kts | 284° |
| 2026-05-06 06:54 | 14.52430 | 120.72427 | 5429 ft | 129 kts | 285° |
| 2026-05-06 06:54 | 14.52646 | 120.71526 | 5599 ft | 128 kts | 288° |
| 2026-05-06 06:54 | 14.52880 | 120.70647 | 5768 ft | 127 kts | 289° |
| 2026-05-06 06:55 | 14.53110 | 120.69769 | 5926 ft | 127 kts | 288° |
| 2026-05-06 06:55 | 14.53342 | 120.68878 | 6096 ft | 127 kts | 289° |
| 2026-05-06 06:55 | 14.53566 | 120.67993 | 6265 ft | 127 kts | 289° |
| 2026-05-06 06:55 | 14.53788 | 120.67119 | 6437 ft | 127 kts | 288° |
| 2026-05-06 06:56 | 14.54012 | 120.66238 | 6588 ft | 127 kts | 288° |
| 2026-05-06 06:56 | 14.54234 | 120.65352 | 6747 ft | 128 kts | 289° |
| 2026-05-06 06:56 | 14.54461 | 120.64455 | 6904 ft | 127 kts | 288° |
| 2026-05-06 06:56 | 14.54688 | 120.63574 | 7046 ft | 127 kts | 289° |
| 2026-05-06 06:57 | 14.54917 | 120.62696 | 7209 ft | 127 kts | 288° |
| 2026-05-06 06:57 | 14.55146 | 120.61830 | 7356 ft | 126 kts | 289° |
| 2026-05-06 06:57 | 14.55400 | 120.60993 | 7648 ft | 114 kts | 291° |
| 2026-05-06 06:57 | 14.55596 | 120.60195 | 7776 ft | 124 kts | 288° |
| 2026-05-06 06:58 | 14.55850 | 120.59280 | 7707 ft | 139 kts | 288° |
| 2026-05-06 06:58 | 14.56134 | 120.58314 | 7647 ft | 143 kts | 288° |
| 2026-05-06 06:58 | 14.56427 | 120.57332 | 7571 ft | 144 kts | 288° |
| 2026-05-06 06:58 | 14.56721 | 120.56343 | 7497 ft | 144 kts | 288° |
| 2026-05-06 06:59 | 14.57023 | 120.55325 | 7320 ft | 149 kts | 288° |
| 2026-05-06 06:59 | 14.57340 | 120.54295 | 7062 ft | 151 kts | 287° |
| 2026-05-06 06:59 | 14.57663 | 120.53284 | 6807 ft | 147 kts | 287° |
| 2026-05-06 06:59 | 14.57978 | 120.52293 | 6577 ft | 144 kts | 287° |
| 2026-05-06 07:00 | 14.58286 | 120.51308 | 6336 ft | 144 kts | 287° |
| 2026-05-06 07:00 | 14.58591 | 120.50338 | 6103 ft | 144 kts | 288° |
| 2026-05-06 07:00 | 14.58902 | 120.49348 | 5852 ft | 145 kts | 287° |
| 2026-05-06 07:00 | 14.59218 | 120.48358 | 5599 ft | 145 kts | 288° |
| 2026-05-06 07:01 | 14.59532 | 120.47382 | 5345 ft | 145 kts | 287° |
| 2026-05-06 07:01 | 14.59853 | 120.46392 | 5080 ft | 144 kts | 288° |
| 2026-05-06 07:01 | 14.60171 | 120.45418 | 4828 ft | 144 kts | 288° |
| 2026-05-06 07:01 | 14.60487 | 120.44442 | 4578 ft | 144 kts | 288° |
| 2026-05-06 07:02 | 14.60803 | 120.43464 | 4332 ft | 144 kts | 288° |
| 2026-05-06 07:02 | 14.61120 | 120.42476 | 4079 ft | 144 kts | 287° |
| 2026-05-06 07:02 | 14.61435 | 120.41499 | 3836 ft | 144 kts | 288° |
| 2026-05-06 07:02 | 14.61750 | 120.40517 | 3592 ft | 144 kts | 288° |
| 2026-05-06 07:03 | 14.62070 | 120.39530 | 3338 ft | 144 kts | 288° |
| 2026-05-06 07:03 | 14.62388 | 120.38554 | 3086 ft | 144 kts | 288° |
| 2026-05-06 07:03 | 14.62702 | 120.37582 | 2828 ft | 143 kts | 287° |
| 2026-05-06 07:03 | 14.63035 | 120.36614 | 2553 ft | 142 kts | 293° |
| 2026-05-06 07:04 | 14.63437 | 120.35686 | 2290 ft | 141 kts | 293° |
| 2026-05-06 07:04 | 14.63826 | 120.34772 | 2044 ft | 137 kts | 293° |
| 2026-05-06 07:04 | 14.64191 | 120.33913 | 1993 ft | 124 kts | 294° |
| 2026-05-06 07:04 | 14.64556 | 120.33132 | 1979 ft | 116 kts | 300° |
| 2026-05-06 07:05 | 14.64992 | 120.32455 | 1974 ft | 112 kts | 306° |
| 2026-05-06 07:05 | 14.65467 | 120.31821 | 1974 ft | 110 kts | 309° |
| 2026-05-06 07:05 | 14.65933 | 120.31189 | 1980 ft | 110 kts | 308° |
| 2026-05-06 07:05 | 14.66398 | 120.30560 | 1978 ft | 111 kts | 309° |
| 2026-05-06 07:06 | 14.66882 | 120.29919 | 1973 ft | 111 kts | 309° |
| 2026-05-06 07:06 | 14.67351 | 120.29285 | 1963 ft | 111 kts | 309° |
| 2026-05-06 07:06 | 14.67825 | 120.28652 | 1968 ft | 111 kts | 310° |
| 2026-05-06 07:06 | 14.68305 | 120.28038 | 1960 ft | 108 kts | 310° |
| 2026-05-06 07:07 | 14.68761 | 120.27482 | 2092 ft | 97 kts | 313° |
| 2026-05-06 07:07 | 14.69239 | 120.26987 | 2088 ft | 100 kts | 321° |
| 2026-05-06 07:07 | 14.69789 | 120.26498 | 1991 ft | 105 kts | 322° |
| 2026-05-06 07:07 | 14.70365 | 120.25996 | 1885 ft | 109 kts | 322° |
| 2026-05-06 07:08 | 14.70933 | 120.25475 | 1799 ft | 108 kts | 319° |
| 2026-05-06 07:08 | 14.71480 | 120.24957 | 1737 ft | 107 kts | 317° |
| 2026-05-06 07:08 | 14.72035 | 120.24458 | 1627 ft | 105 kts | 322° |
| 2026-05-06 07:08 | 14.72634 | 120.24046 | 1545 ft | 102 kts | 328° |
| 2026-05-06 07:09 | 14.73221 | 120.23713 | 1584 ft | 89 kts | 333° |
| 2026-05-06 07:09 | 14.73791 | 120.23489 | 1576 ft | 90 kts | 339° |
| 2026-05-06 07:09 | 14.74400 | 120.23282 | 1534 ft | 91 kts | 340° |
| 2026-05-06 07:09 | 14.75023 | 120.23096 | 1424 ft | 97 kts | 342° |
| 2026-05-06 07:10 | 14.75769 | 120.22997 | 1063 ft | 118 kts | 350° |
| 2026-05-06 07:10 | 14.76544 | 120.23023 | 962 ft | 110 kts | 1° |
| 2026-05-06 07:10 | 14.77293 | 120.23211 | 748 ft | 104 kts | 15° |
| 2026-05-06 07:10 | 14.77875 | 120.23577 | 669 ft | 95 kts | 34° |
| 2026-05-06 07:11 | 14.78283 | 120.24143 | 434 ft | 103 kts | 60° |
| 2026-05-06 07:11 | 14.78511 | 120.24805 | 267 ft | 94 kts | 65° |
| 2026-05-06 07:11 | 14.78732 | 120.25363 | 159 ft | 74 kts | 59° |
| 2026-05-06 07:11 | 14.78883 | 120.25760 | 94 ft | 39 kts | 62° |
| 2026-05-06 07:12 | 14.78952 | 120.25925 | 49 ft | 18 kts | 86° |
| 2026-05-06 07:12 | 14.78941 | 120.26043 | 62 ft | 21 kts | 102° |
| 2026-05-06 07:12 | 14.78936 | 120.26255 | 97 ft | 42 kts | 79° |
| 2026-05-06 07:12 | 14.79050 | 120.26543 | 120 ft | 38 kts | 80° |
| 2026-05-06 07:13 | 14.79139 | 120.26736 | 128 ft | 29 kts | 92° |
| 2026-05-06 07:13 | 14.79200 | 120.26896 | 92 ft | 16 kts | 139° |
| 2026-05-06 07:13 | 14.79208 | 120.26955 | 92 ft | 7 kts | 121° |
| 2026-05-06 07:13 | 14.79203 | 120.26995 | 90 ft | 4 kts | 143° |
| 2026-05-06 07:14 | 14.79183 | 120.27017 | 92 ft | 2 kts | 165° |
| 2026-05-06 07:14 | 14.79174 | 120.27025 | 82 ft | 0 kts | 172° |